Terminal Aerodrome Forecast
Issued by NWS

Home | Current Version | Previous Version | Text Only | Print | Product List | Glossary On
Versions: 1 2 3 4 5 6 7 8 9 10 11 12 13
000
FTAK31 PANC 222325
TAFADQ
TAF
PADQ 222325Z 2300/2324 17007KT P6SM SKC
     FM230600 10014KT P6SM VCSH BKN040
     FM231400 12012KT 2SM -SN BKN015
     FM231800 24006KT P6SM SCT050=

USA.gov is the U.S. government's official web portal to all federal, state and local government web resources and services.